This is the latest recevied weather packets stored in our database for station/object VE6CWS-7. If no packets are shown the sender has not sent any weather packets the latest 10 day(s).
| Time | Temp. | Humidity | Pressure | Rain* | Wind** | Luminosity | Snow |
|---|---|---|---|---|---|---|---|
| 1778092219 | 15° C | 32% | 1011.7 hPa | 0 mm | - | - | - |
| 1778091313 | 15° C | 31% | 1012 hPa | 0 mm | - | - | - |
| 1778090407 | 14.44° C | 31% | 1012.3 hPa | 0 mm | - | - | - |
| 1778089502 | 13.89° C | 32% | 1012.6 hPa | 0 mm | - | - | - |
| 1778088674 | 13.89° C | 34% | 1012.9 hPa | 0 mm | - | - | - |
| 1778087756 | 13.33° C | 35% | 1013.3 hPa | 0 mm | - | - | - |
| 1778086856 | 12.78° C | 37% | 1013.6 hPa | 0 mm | - | - | - |
| 1778085950 | 11.11° C | 38% | 1014 hPa | 0 mm | - | - | - |
| 1778085047 | 10.56° C | 41% | 1014.2 hPa | 0 mm | - | - | - |
| 1778084146 | 10° C | 42% | 1014.6 hPa | 0 mm | - | - | - |
| 1778083244 | 9.44° C | 43% | 1014.8 hPa | 0 mm | - | - | - |
| 1778082335 | 8.33° C | 46% | 1014.8 hPa | 0 mm | - | - | - |
| 1778081436 | 7.78° C | 49% | 1015 hPa | 0 mm | - | - | - |
| 1778080529 | 6.67° C | 52% | 1015.2 hPa | 0 mm | - | - | - |
| 1778079627 | 6.11° C | 54% | 1015.4 hPa | 0 mm | - | - | - |
| 1778078722 | 5° C | 58% | 1015.7 hPa | 0 mm | - | - | - |
| 1778077816 | 3.33° C | 65% | 1015.9 hPa | 0 mm | - | - | - |
| 1778076913 | 2.22° C | 68% | 1016 hPa | 0 mm | - | - | - |
| 1778076014 | 1.11° C | 70% | 1016.2 hPa | 0 mm | - | - | - |
| 1778075106 | 0° C | 76% | 1016.4 hPa | 0 mm | - | - | - |
| 1778074205 | -1.11° C | 78% | 1016.6 hPa | 0 mm | - | - | - |
| 1778073301 | -2.22° C | 79% | 1016.6 hPa | 0 mm | - | - | - |
| 1778072519 | -2.78° C | 79% | 1016.7 hPa | 0 mm | - | - | - |
| 1778071557 | -3.33° C | 77% | 1016.7 hPa | 0 mm | - | - | - |
| 1778070654 | -2.78° C | 75% | 1016.8 hPa | 0 mm | - | - | - |
* Rain latest hour (hover to see other rain measurements)
** Current wind speed in m/s (hover to see current wind gust speed)